sensor_id;sensor_type;location;lat;lon;timestamp;pressure;altitude;pressure_sealevel;temperature;humidity
80335;BME280;69653;52.674;13.574;2023-06-22T00:00:17;101047.09;;;18.72;74.63
80335;BME280;69653;52.674;13.574;2023-06-22T00:02:42;101039.94;;;18.71;74.58
80335;BME280;69653;52.674;13.574;2023-06-22T00:05:08;101051.13;;;18.74;74.46
80335;BME280;69653;52.674;13.574;2023-06-22T00:07:33;101046.97;;;18.68;74.29
80335;BME280;69653;52.674;13.574;2023-06-22T00:09:58;101091.66;;;18.91;74.40
80335;BME280;69653;52.674;13.574;2023-06-22T00:12:23;101065.31;;;18.73;74.54
80335;BME280;69653;52.674;13.574;2023-06-22T00:14:49;101058.19;;;18.72;74.67
80335;BME280;69653;52.674;13.574;2023-06-22T00:17:14;101070.16;;;18.76;74.81
80335;BME280;69653;52.674;13.574;2023-06-22T00:19:40;101084.03;;;18.88;74.83
80335;BME280;69653;52.674;13.574;2023-06-22T00:22:05;101085.56;;;18.85;74.87
80335;BME280;69653;52.674;13.574;2023-06-22T00:24:31;101080.09;;;18.77;74.42
80335;BME280;69653;52.674;13.574;2023-06-22T00:26:56;101082.06;;;18.76;75.14
80335;BME280;69653;52.674;13.574;2023-06-22T00:29:21;101061.84;;;18.64;75.48
80335;BME280;69653;52.674;13.574;2023-06-22T00:31:47;101080.53;;;18.67;75.41
80335;BME280;69653;52.674;13.574;2023-06-22T00:34:12;101076.72;;;18.59;75.86
80335;BME280;69653;52.674;13.574;2023-06-22T00:36:37;101104.44;;;18.71;76.27
80335;BME280;69653;52.674;13.574;2023-06-22T00:39:05;101080.38;;;18.51;75.86
80335;BME280;69653;52.674;13.574;2023-06-22T00:41:32;101085.59;;;18.53;76.09
80335;BME280;69653;52.674;13.574;2023-06-22T00:43:57;101100.38;;;18.57;76.45
80335;BME280;69653;52.674;13.574;2023-06-22T00:46:23;101125.31;;;18.69;76.47
80335;BME280;69653;52.674;13.574;2023-06-22T00:48:50;101083.53;;;18.41;76.40
80335;BME280;69653;52.674;13.574;2023-06-22T00:51:16;101095.44;;;18.41;76.88
80335;BME280;69653;52.674;13.574;2023-06-22T00:53:42;101099.34;;;18.40;77.01
80335;BME280;69653;52.674;13.574;2023-06-22T00:56:08;101107.97;;;18.39;77.08
80335;BME280;69653;52.674;13.574;2023-06-22T00:58:35;101112.31;;;18.49;77.08
80335;BME280;69653;52.674;13.574;2023-06-22T01:01:01;101085.00;;;18.26;77.19
80335;BME280;69653;52.674;13.574;2023-06-22T01:03:27;101093.75;;;18.28;77.61
80335;BME280;69653;52.674;13.574;2023-06-22T01:05:58;101093.56;;;18.33;77.64
80335;BME280;69653;52.674;13.574;2023-06-22T01:11:25;101113.63;;;18.30;77.61
80335;BME280;69653;52.674;13.574;2023-06-22T01:14:23;101136.16;;;18.41;77.91
80335;BME280;69653;52.674;13.574;2023-06-22T01:16:51;101130.63;;;18.41;78.08
80335;BME280;69653;52.674;13.574;2023-06-22T01:19:38;101135.22;;;18.37;78.02
80335;BME280;69653;52.674;13.574;2023-06-22T01:22:08;101113.88;;;18.17;78.44
80335;BME280;69653;52.674;13.574;2023-06-22T01:29:56;101132.38;;;18.04;79.26
80335;BME280;69653;52.674;13.574;2023-06-22T01:32:33;101150.75;;;18.09;79.25
80335;BME280;69653;52.674;13.574;2023-06-22T01:35:01;101124.81;;;17.92;79.58
80335;BME280;69653;52.674;13.574;2023-06-22T01:37:29;101114.16;;;17.82;80.01
80335;BME280;69653;52.674;13.574;2023-06-22T01:39:58;101103.31;;;17.69;80.04
80335;BME280;69653;52.674;13.574;2023-06-22T01:42:24;101135.59;;;17.85;80.23
80335;BME280;69653;52.674;13.574;2023-06-22T01:44:52;101111.47;;;17.65;80.46
80335;BME280;69653;52.674;13.574;2023-06-22T01:47:18;101153.22;;;17.81;80.30
80335;BME280;69653;52.674;13.574;2023-06-22T01:49:44;101139.09;;;17.74;80.86
80335;BME280;69653;52.674;13.574;2023-06-22T01:52:10;101150.63;;;17.76;81.07
80335;BME280;69653;52.674;13.574;2023-06-22T01:54:39;101133.97;;;17.64;80.94
80335;BME280;69653;52.674;13.574;2023-06-22T01:57:05;101123.22;;;17.54;81.04
80335;BME280;69653;52.674;13.574;2023-06-22T01:59:42;101145.34;;;17.62;81.15
80335;BME280;69653;52.674;13.574;2023-06-22T02:02:11;101122.94;;;17.46;81.30
80335;BME280;69653;52.674;13.574;2023-06-22T02:04:44;101166.63;;;17.70;81.31
80335;BME280;69653;52.674;13.574;2023-06-22T02:07:14;101129.28;;;17.47;81.51
80335;BME280;69653;52.674;13.574;2023-06-22T02:09:44;101137.13;;;17.45;81.55
80335;BME280;69653;52.674;13.574;2023-06-22T02:12:12;101160.97;;;17.58;81.61
80335;BME280;69653;52.674;13.574;2023-06-22T02:14:39;101144.09;;;17.42;81.79
80335;BME280;69653;52.674;13.574;2023-06-22T02:17:04;101139.41;;;17.34;81.75
80335;BME280;69653;52.674;13.574;2023-06-22T02:19:36;101143.50;;;17.28;81.97
80335;BME280;69653;52.674;13.574;2023-06-22T02:22:01;101143.22;;;17.21;82.08
80335;BME280;69653;52.674;13.574;2023-06-22T02:24:27;101151.38;;;17.18;82.59
80335;BME280;69653;52.674;13.574;2023-06-22T02:26:52;101148.97;;;17.08;82.53
80335;BME280;69653;52.674;13.574;2023-06-22T02:29:17;101152.53;;;17.08;83.11
80335;BME280;69653;52.674;13.574;2023-06-22T02:31:43;101168.75;;;17.27;83.41
80335;BME280;69653;52.674;13.574;2023-06-22T02:34:08;101152.03;;;17.15;83.36
80335;BME280;69653;52.674;13.574;2023-06-22T02:36:34;101150.09;;;17.15;83.14
80335;BME280;69653;52.674;13.574;2023-06-22T02:38:59;101149.25;;;17.15;83.19
80335;BME280;69653;52.674;13.574;2023-06-22T02:41:27;101151.53;;;17.13;83.15
80335;BME280;69653;52.674;13.574;2023-06-22T02:43:52;101141.34;;;17.05;83.08
80335;BME280;69653;52.674;13.574;2023-06-22T02:46:18;101142.47;;;17.04;83.34
80335;BME280;69653;52.674;13.574;2023-06-22T02:48:43;101159.50;;;17.14;83.51
80335;BME280;69653;52.674;13.574;2023-06-22T02:51:09;101156.09;;;17.09;83.49
80335;BME280;69653;52.674;13.574;2023-06-22T02:53:34;101154.34;;;17.04;83.65
80335;BME280;69653;52.674;13.574;2023-06-22T02:56:02;101138.75;;;17.00;83.86
80335;BME280;69653;52.674;13.574;2023-06-22T02:58:30;101149.13;;;17.03;83.94
80335;BME280;69653;52.674;13.574;2023-06-22T03:00:55;101149.97;;;16.94;83.48
80335;BME280;69653;52.674;13.574;2023-06-22T03:03:21;101166.22;;;17.05;83.91
80335;BME280;69653;52.674;13.574;2023-06-22T03:05:46;101148.34;;;16.93;84.15
80335;BME280;69653;52.674;13.574;2023-06-22T03:08:11;101176.59;;;17.08;84.17
80335;BME280;69653;52.674;13.574;2023-06-22T03:10:37;101152.25;;;16.92;84.20
80335;BME280;69653;52.674;13.574;2023-06-22T03:13:02;101162.31;;;16.97;84.28
80335;BME280;69653;52.674;13.574;2023-06-22T03:15:28;101194.59;;;17.22;83.92
80335;BME280;69653;52.674;13.574;2023-06-22T03:17:54;101172.19;;;17.07;83.73
80335;BME280;69653;52.674;13.574;2023-06-22T03:20:20;101174.81;;;17.12;83.67
80335;BME280;69653;52.674;13.574;2023-06-22T03:22:45;101171.84;;;17.17;83.57
80335;BME280;69653;52.674;13.574;2023-06-22T03:25:10;101164.88;;;17.19;83.72
80335;BME280;69653;52.674;13.574;2023-06-22T03:27:38;101161.75;;;17.21;83.46
80335;BME280;69653;52.674;13.574;2023-06-22T03:30:05;101165.16;;;17.26;83.18
80335;BME280;69653;52.674;13.574;2023-06-22T03:32:31;101176.03;;;17.31;83.49
80335;BME280;69653;52.674;13.574;2023-06-22T03:34:56;101178.75;;;17.40;83.22
80335;BME280;69653;52.674;13.574;2023-06-22T03:37:24;101174.50;;;17.42;83.04
80335;BME280;69653;52.674;13.574;2023-06-22T03:39:49;101144.00;;;17.30;83.00
80335;BME280;69653;52.674;13.574;2023-06-22T03:42:15;101145.28;;;17.33;82.93
80335;BME280;69653;52.674;13.574;2023-06-22T03:44:40;101151.78;;;17.37;82.67
80335;BME280;69653;52.674;13.574;2023-06-22T03:47:05;101166.22;;;17.42;82.74
80335;BME280;69653;52.674;13.574;2023-06-22T03:49:32;101176.25;;;17.56;82.72
80335;BME280;69653;52.674;13.574;2023-06-22T03:51:59;101162.47;;;17.47;82.40
80335;BME280;69653;52.674;13.574;2023-06-22T03:54:24;101150.13;;;17.44;82.27
80335;BME280;69653;52.674;13.574;2023-06-22T03:56:50;101158.03;;;17.55;82.15
80335;BME280;69653;52.674;13.574;2023-06-22T03:59:15;101154.47;;;17.54;81.77
80335;BME280;69653;52.674;13.574;2023-06-22T04:01:41;101144.22;;;17.55;81.61
80335;BME280;69653;52.674;13.574;2023-06-22T04:04:06;101168.25;;;17.71;81.56
80335;BME280;69653;52.674;13.574;2023-06-22T04:06:32;101151.81;;;17.66;81.31
80335;BME280;69653;52.674;13.574;2023-06-22T04:08:59;101164.28;;;17.81;81.01
80335;BME280;69653;52.674;13.574;2023-06-22T04:11:26;101141.19;;;17.77;80.96
80335;BME280;69653;52.674;13.574;2023-06-22T04:13:51;101156.75;;;17.90;80.61
80335;BME280;69653;52.674;13.574;2023-06-22T04:16:17;101179.53;;;18.16;79.81
80335;BME280;69653;52.674;13.574;2023-06-22T04:18:42;101133.06;;;18.01;79.19
80335;BME280;69653;52.674;13.574;2023-06-22T04:21:07;101145.75;;;18.23;78.56
80335;BME280;69653;52.674;13.574;2023-06-22T04:23:32;101162.91;;;18.58;77.75
80335;BME280;69653;52.674;13.574;2023-06-22T04:25:58;101164.84;;;18.78;76.78
80335;BME280;69653;52.674;13.574;2023-06-22T04:28:24;101173.34;;;19.06;75.96
80335;BME280;69653;52.674;13.574;2023-06-22T04:30:50;101141.81;;;18.98;75.01
80335;BME280;69653;52.674;13.574;2023-06-22T04:33:16;101178.84;;;19.26;74.28
80335;BME280;69653;52.674;13.574;2023-06-22T04:35:44;101156.63;;;19.14;73.25
80335;BME280;69653;52.674;13.574;2023-06-22T04:38:12;101154.69;;;19.27;73.04
80335;BME280;69653;52.674;13.574;2023-06-22T04:40:39;101146.38;;;19.39;72.01
80335;BME280;69653;52.674;13.574;2023-06-22T04:43:04;101157.41;;;19.60;71.48
80335;BME280;69653;52.674;13.574;2023-06-22T04:45:31;101155.19;;;19.77;70.93
80335;BME280;69653;52.674;13.574;2023-06-22T04:47:56;101181.19;;;20.09;70.19
80335;BME280;69653;52.674;13.574;2023-06-22T04:50:22;101181.84;;;20.18;69.82
80335;BME280;69653;52.674;13.574;2023-06-22T04:52:49;101209.09;;;20.65;68.52
80335;BME280;69653;52.674;13.574;2023-06-22T04:55:14;101189.78;;;20.84;67.65
80335;BME280;69653;52.674;13.574;2023-06-22T04:57:46;101180.91;;;20.94;66.89
80335;BME280;69653;52.674;13.574;2023-06-22T05:00:18;101180.97;;;21.25;65.76
80335;BME280;69653;52.674;13.574;2023-06-22T05:02:46;101189.81;;;21.43;64.99
80335;BME280;69653;52.674;13.574;2023-06-22T05:05:13;101205.25;;;21.56;64.79
80335;BME280;69653;52.674;13.574;2023-06-22T05:07:46;101197.63;;;21.69;64.51
80335;BME280;69653;52.674;13.574;2023-06-22T05:10:13;101208.28;;;21.98;63.37
80335;BME280;69653;52.674;13.574;2023-06-22T05:12:40;101203.31;;;22.07;63.07
80335;BME280;69653;52.674;13.574;2023-06-22T05:15:09;101200.44;;;22.04;63.01
80335;BME280;69653;52.674;13.574;2023-06-22T05:17:36;101224.53;;;22.12;62.90
80335;BME280;69653;52.674;13.574;2023-06-22T05:20:02;101224.59;;;22.15;62.47
80335;BME280;69653;52.674;13.574;2023-06-22T05:22:31;101190.38;;;22.15;62.22
80335;BME280;69653;52.674;13.574;2023-06-22T05:24:56;101187.63;;;22.34;62.17
80335;BME280;69653;52.674;13.574;2023-06-22T05:27:21;101198.34;;;22.51;60.66
80335;BME280;69653;52.674;13.574;2023-06-22T05:29:47;101194.97;;;22.61;60.20
80335;BME280;69653;52.674;13.574;2023-06-22T05:32:12;101173.38;;;22.74;59.74
80335;BME280;69653;52.674;13.574;2023-06-22T05:34:38;101191.94;;;23.08;58.82
80335;BME280;69653;52.674;13.574;2023-06-22T05:37:03;101188.88;;;23.13;57.40
80335;BME280;69653;52.674;13.574;2023-06-22T05:39:29;101195.47;;;22.67;56.85
80335;BME280;69653;52.674;13.574;2023-06-22T05:41:54;101212.47;;;22.78;56.99
80335;BME280;69653;52.674;13.574;2023-06-22T05:44:20;101190.41;;;22.53;57.08
80335;BME280;69653;52.674;13.574;2023-06-22T05:46:45;101200.41;;;22.54;57.62
80335;BME280;69653;52.674;13.574;2023-06-22T05:49:12;101199.72;;;22.42;57.37
80335;BME280;69653;52.674;13.574;2023-06-22T05:51:38;101195.31;;;22.41;57.13
80335;BME280;69653;52.674;13.574;2023-06-22T05:54:04;101221.09;;;22.53;55.81
80335;BME280;69653;52.674;13.574;2023-06-22T05:56:29;101210.16;;;22.64;55.15
80335;BME280;69653;52.674;13.574;2023-06-22T05:58:54;101192.81;;;23.12;54.22
80335;BME280;69653;52.674;13.574;2023-06-22T06:01:20;101204.97;;;23.43;53.03
80335;BME280;69653;52.674;13.574;2023-06-22T06:03:45;101222.72;;;23.54;52.35
80335;BME280;69653;52.674;13.574;2023-06-22T06:06:11;101239.00;;;23.29;53.26
80335;BME280;69653;52.674;13.574;2023-06-22T06:08:39;101212.66;;;23.07;53.41
80335;BME280;69653;52.674;13.574;2023-06-22T06:11:05;101191.56;;;22.68;54.05
80335;BME280;69653;52.674;13.574;2023-06-22T06:13:30;101217.88;;;22.70;54.46
80335;BME280;69653;52.674;13.574;2023-06-22T06:15:56;101206.19;;;22.65;54.12
80335;BME280;69653;52.674;13.574;2023-06-22T06:18:22;101223.03;;;23.07;54.37
80335;BME280;69653;52.674;13.574;2023-06-22T06:20:47;101235.88;;;23.53;52.94
80335;BME280;69653;52.674;13.574;2023-06-22T06:23:13;101210.56;;;23.43;51.76
80335;BME280;69653;52.674;13.574;2023-06-22T06:25:38;101231.59;;;23.59;51.08
80335;BME280;69653;52.674;13.574;2023-06-22T06:28:03;101250.50;;;23.92;51.41
80335;BME280;69653;52.674;13.574;2023-06-22T06:30:29;101218.72;;;24.00;50.36
80335;BME280;69653;52.674;13.574;2023-06-22T06:32:55;101216.63;;;24.20;49.17
80335;BME280;69653;52.674;13.574;2023-06-22T06:35:20;101207.25;;;24.35;48.24
80335;BME280;69653;52.674;13.574;2023-06-22T06:37:48;101237.78;;;24.77;47.79
80335;BME280;69653;52.674;13.574;2023-06-22T06:40:15;101229.66;;;24.98;47.20
80335;BME280;69653;52.674;13.574;2023-06-22T06:42:42;101191.69;;;24.97;46.69
80335;BME280;69653;52.674;13.574;2023-06-22T06:45:15;101221.09;;;25.18;46.82
80335;BME280;69653;52.674;13.574;2023-06-22T06:47:41;101203.56;;;25.24;46.17
80335;BME280;69653;52.674;13.574;2023-06-22T06:50:07;101227.16;;;25.60;44.89
80335;BME280;69653;52.674;13.574;2023-06-22T06:52:32;101218.09;;;25.77;45.22
80335;BME280;69653;52.674;13.574;2023-06-22T06:54:58;101220.94;;;25.84;43.92
80335;BME280;69653;52.674;13.574;2023-06-22T06:57:23;101222.69;;;26.03;43.46
80335;BME280;69653;52.674;13.574;2023-06-22T06:59:49;101211.13;;;26.12;43.64
80335;BME280;69653;52.674;13.574;2023-06-22T07:02:15;101218.09;;;26.32;42.83
80335;BME280;69653;52.674;13.574;2023-06-22T07:04:40;101219.00;;;26.50;43.14
80335;BME280;69653;52.674;13.574;2023-06-22T07:07:06;101206.19;;;26.49;42.17
80335;BME280;69653;52.674;13.574;2023-06-22T07:09:32;101225.09;;;26.66;41.75
80335;BME280;69653;52.674;13.574;2023-06-22T07:11:57;101234.88;;;26.97;39.74
80335;BME280;69653;52.674;13.574;2023-06-22T07:14:23;101207.03;;;26.64;40.54
80335;BME280;69653;52.674;13.574;2023-06-22T07:16:48;101207.41;;;26.55;41.03
80335;BME280;69653;52.674;13.574;2023-06-22T07:19:14;101196.38;;;27.01;40.83
80335;BME280;69653;52.674;13.574;2023-06-22T07:21:39;101188.38;;;27.14;41.41
80335;BME280;69653;52.674;13.574;2023-06-22T07:24:05;101180.00;;;27.42;41.60
80335;BME280;69653;52.674;13.574;2023-06-22T07:26:31;101188.06;;;27.72;40.32
80335;BME280;69653;52.674;13.574;2023-06-22T07:28:56;101175.97;;;27.96;38.19
80335;BME280;69653;52.674;13.574;2023-06-22T07:31:24;101175.50;;;28.47;36.70
80335;BME280;69653;52.674;13.574;2023-06-22T07:33:49;101185.88;;;28.68;36.20
80335;BME280;69653;52.674;13.574;2023-06-22T07:36:16;101179.56;;;29.15;35.95
80335;BME280;69653;52.674;13.574;2023-06-22T07:38:42;101172.28;;;29.25;34.40
80335;BME280;69653;52.674;13.574;2023-06-22T07:41:07;101185.75;;;28.89;37.21
80335;BME280;69653;52.674;13.574;2023-06-22T07:43:32;101177.38;;;28.75;35.99
80335;BME280;69653;52.674;13.574;2023-06-22T07:45:59;101181.84;;;28.62;35.34
80335;BME280;69653;52.674;13.574;2023-06-22T07:48:24;101168.69;;;28.37;34.43
80335;BME280;69653;52.674;13.574;2023-06-22T07:50:50;101167.09;;;28.26;35.06
80335;BME280;69653;52.674;13.574;2023-06-22T07:53:15;101165.16;;;27.91;35.55
80335;BME280;69653;52.674;13.574;2023-06-22T07:55:41;101158.34;;;27.67;35.31
80335;BME280;69653;52.674;13.574;2023-06-22T07:58:06;101161.16;;;27.39;36.39
80335;BME280;69653;52.674;13.574;2023-06-22T08:00:33;101160.72;;;27.37;36.47
80335;BME280;69653;52.674;13.574;2023-06-22T08:02:59;101175.22;;;27.53;36.43
80335;BME280;69653;52.674;13.574;2023-06-22T08:05:24;101135.00;;;26.89;36.91
80335;BME280;69653;52.674;13.574;2023-06-22T08:07:50;101167.53;;;27.22;37.72
80335;BME280;69653;52.674;13.574;2023-06-22T08:10:16;101165.53;;;27.22;37.90
80335;BME280;69653;52.674;13.574;2023-06-22T08:12:42;101178.38;;;27.34;37.72
80335;BME280;69653;52.674;13.574;2023-06-22T08:15:08;101151.13;;;27.27;36.84
80335;BME280;69653;52.674;13.574;2023-06-22T08:17:36;101156.75;;;27.56;37.67
80335;BME280;69653;52.674;13.574;2023-06-22T08:20:02;101143.50;;;27.63;37.15
80335;BME280;69653;52.674;13.574;2023-06-22T08:22:34;101139.84;;;27.94;36.13
80335;BME280;69653;52.674;13.574;2023-06-22T08:25:00;101156.31;;;27.89;36.17
80335;BME280;69653;52.674;13.574;2023-06-22T08:27:25;101183.63;;;28.17;35.78
80335;BME280;69653;52.674;13.574;2023-06-22T08:29:53;101171.59;;;27.77;36.30
80335;BME280;69653;52.674;13.574;2023-06-22T08:32:23;101181.63;;;27.68;36.80
80335;BME280;69653;52.674;13.574;2023-06-22T08:34:48;101159.56;;;27.48;37.13
80335;BME280;69653;52.674;13.574;2023-06-22T08:37:13;101186.44;;;27.42;36.07
80335;BME280;69653;52.674;13.574;2023-06-22T08:39:39;101156.72;;;27.10;36.97
80335;BME280;69653;52.674;13.574;2023-06-22T08:42:05;101176.38;;;27.10;38.45
80335;BME280;69653;52.674;13.574;2023-06-22T08:44:30;101170.59;;;26.74;37.53
80335;BME280;69653;52.674;13.574;2023-06-22T08:46:55;101164.56;;;26.65;37.38
80335;BME280;69653;52.674;13.574;2023-06-22T08:49:21;101161.34;;;26.63;38.69
80335;BME280;69653;52.674;13.574;2023-06-22T08:51:47;101171.41;;;26.68;38.78
80335;BME280;69653;52.674;13.574;2023-06-22T08:54:14;101163.00;;;26.71;39.00
80335;BME280;69653;52.674;13.574;2023-06-22T08:56:39;101167.78;;;26.67;38.27
80335;BME280;69653;52.674;13.574;2023-06-22T08:59:05;101160.16;;;26.64;37.61
80335;BME280;69653;52.674;13.574;2023-06-22T09:01:33;101148.91;;;26.57;38.08
80335;BME280;69653;52.674;13.574;2023-06-22T09:03:58;101167.78;;;26.67;38.84
80335;BME280;69653;52.674;13.574;2023-06-22T09:06:25;101164.63;;;26.79;38.43
80335;BME280;69653;52.674;13.574;2023-06-22T09:08:50;101151.38;;;26.76;37.71
80335;BME280;69653;52.674;13.574;2023-06-22T09:11:16;101159.06;;;26.83;37.11
80335;BME280;69653;52.674;13.574;2023-06-22T09:13:41;101179.94;;;27.14;38.24
80335;BME280;69653;52.674;13.574;2023-06-22T09:16:07;101158.72;;;27.06;38.06
80335;BME280;69653;52.674;13.574;2023-06-22T09:18:34;101167.94;;;27.17;37.34
80335;BME280;69653;52.674;13.574;2023-06-22T09:20:59;101144.28;;;27.25;37.72
80335;BME280;69653;52.674;13.574;2023-06-22T09:23:25;101140.72;;;27.49;37.37
80335;BME280;69653;52.674;13.574;2023-06-22T09:25:50;101158.38;;;27.60;37.22
80335;BME280;69653;52.674;13.574;2023-06-22T09:28:15;101139.50;;;27.68;36.24
80335;BME280;69653;52.674;13.574;2023-06-22T09:30:42;101131.44;;;27.94;35.89
80335;BME280;69653;52.674;13.574;2023-06-22T09:33:08;101138.50;;;28.49;35.38
80335;BME280;69653;52.674;13.574;2023-06-22T09:35:33;101125.78;;;28.99;34.60
80335;BME280;69653;52.674;13.574;2023-06-22T09:37:59;101142.66;;;29.58;34.45
80335;BME280;69653;52.674;13.574;2023-06-22T09:40:24;101140.06;;;29.77;33.52
80335;BME280;69653;52.674;13.574;2023-06-22T09:42:50;101136.34;;;29.43;32.85
80335;BME280;69653;52.674;13.574;2023-06-22T09:45:15;101126.63;;;28.92;33.29
80335;BME280;69653;52.674;13.574;2023-06-22T09:47:40;101128.00;;;28.56;34.68
80335;BME280;69653;52.674;13.574;2023-06-22T09:50:06;101124.31;;;28.66;35.14
80335;BME280;69653;52.674;13.574;2023-06-22T09:52:32;101134.69;;;28.90;34.39
80335;BME280;69653;52.674;13.574;2023-06-22T09:54:57;101121.38;;;28.98;35.52
80335;BME280;69653;52.674;13.574;2023-06-22T09:57:23;101137.38;;;29.60;34.09
80335;BME280;69653;52.674;13.574;2023-06-22T09:59:48;101128.94;;;30.01;32.78
80335;BME280;69653;52.674;13.574;2023-06-22T10:02:13;101142.91;;;30.49;31.33
80335;BME280;69653;52.674;13.574;2023-06-22T10:04:38;101135.06;;;30.63;30.74
80335;BME280;69653;52.674;13.574;2023-06-22T10:07:05;101149.19;;;30.90;30.23
80335;BME280;69653;52.674;13.574;2023-06-22T10:09:30;101135.59;;;31.12;29.98
80335;BME280;69653;52.674;13.574;2023-06-22T10:11:56;101142.81;;;31.40;29.26
80335;BME280;69653;52.674;13.574;2023-06-22T10:14:21;101142.66;;;31.23;28.74
80335;BME280;69653;52.674;13.574;2023-06-22T10:16:48;101135.06;;;31.20;29.35
80335;BME280;69653;52.674;13.574;2023-06-22T10:19:13;101125.56;;;31.57;29.26
80335;BME280;69653;52.674;13.574;2023-06-22T10:21:38;101143.69;;;32.06;29.16
80335;BME280;69653;52.674;13.574;2023-06-22T10:24:04;101135.59;;;32.05;27.76
80335;BME280;69653;52.674;13.574;2023-06-22T10:26:34;101133.03;;;31.91;28.16
80335;BME280;69653;52.674;13.574;2023-06-22T10:29:01;101155.56;;;32.60;29.23
80335;BME280;69653;52.674;13.574;2023-06-22T10:31:26;101152.44;;;32.91;28.20
80335;BME280;69653;52.674;13.574;2023-06-22T10:33:53;101162.28;;;32.66;27.70
80335;BME280;69653;52.674;13.574;2023-06-22T10:36:19;101145.88;;;32.38;27.68
80335;BME280;69653;52.674;13.574;2023-06-22T10:38:44;101142.34;;;31.68;28.91
80335;BME280;69653;52.674;13.574;2023-06-22T10:41:10;101131.78;;;31.49;28.96
80335;BME280;69653;52.674;13.574;2023-06-22T10:43:35;101143.34;;;31.81;28.39
80335;BME280;69653;52.674;13.574;2023-06-22T10:46:01;101131.53;;;31.86;28.24
80335;BME280;69653;52.674;13.574;2023-06-22T10:48:26;101123.50;;;32.24;28.78
80335;BME280;69653;52.674;13.574;2023-06-22T10:50:51;101137.00;;;32.56;28.29
80335;BME280;69653;52.674;13.574;2023-06-22T10:53:18;101124.59;;;32.69;27.53
80335;BME280;69653;52.674;13.574;2023-06-22T10:55:43;101117.53;;;32.78;27.57
80335;BME280;69653;52.674;13.574;2023-06-22T10:58:08;101122.22;;;32.48;27.80
80335;BME280;69653;52.674;13.574;2023-06-22T11:00:34;101119.38;;;32.48;27.37
80335;BME280;69653;52.674;13.574;2023-06-22T11:02:59;101108.56;;;32.04;28.13
80335;BME280;69653;52.674;13.574;2023-06-22T11:05:24;101102.63;;;31.75;27.77
80335;BME280;69653;52.674;13.574;2023-06-22T11:07:50;101081.00;;;31.65;28.48
80335;BME280;69653;52.674;13.574;2023-06-22T11:10:15;101081.22;;;31.54;28.60
80335;BME280;69653;52.674;13.574;2023-06-22T11:12:41;101087.09;;;31.17;29.45
80335;BME280;69653;52.674;13.574;2023-06-22T11:15:08;101088.47;;;30.78;29.78
80335;BME280;69653;52.674;13.574;2023-06-22T11:17:34;101086.22;;;31.20;28.79
80335;BME280;69653;52.674;13.574;2023-06-22T11:19:59;101076.78;;;31.53;29.21
80335;BME280;69653;52.674;13.574;2023-06-22T11:22:25;101088.44;;;31.98;28.34
80335;BME280;69653;52.674;13.574;2023-06-22T11:24:50;101074.31;;;31.98;27.83
80335;BME280;69653;52.674;13.574;2023-06-22T11:27:16;101083.09;;;32.04;28.25
80335;BME280;69653;52.674;13.574;2023-06-22T11:29:44;101080.94;;;32.11;27.70
80335;BME280;69653;52.674;13.574;2023-06-22T11:32:12;101078.31;;;32.01;28.39
80335;BME280;69653;52.674;13.574;2023-06-22T11:34:42;101066.63;;;31.99;27.40
80335;BME280;69653;52.674;13.574;2023-06-22T11:37:07;101069.50;;;32.54;27.90
80335;BME280;69653;52.674;13.574;2023-06-22T11:39:32;101060.44;;;32.63;27.35
80335;BME280;69653;52.674;13.574;2023-06-22T11:41:58;101074.41;;;32.34;28.37
80335;BME280;69653;52.674;13.574;2023-06-22T11:44:24;101067.91;;;31.74;27.90
80335;BME280;69653;52.674;13.574;2023-06-22T11:46:49;101077.66;;;31.93;28.61
80335;BME280;69653;52.674;13.574;2023-06-22T11:49:14;101077.22;;;32.34;28.79
80335;BME280;69653;52.674;13.574;2023-06-22T11:51:39;101076.59;;;32.07;28.64
80335;BME280;69653;52.674;13.574;2023-06-22T11:54:05;101083.63;;;31.75;28.26
80335;BME280;69653;52.674;13.574;2023-06-22T11:56:30;101081.38;;;31.20;29.41
80335;BME280;69653;52.674;13.574;2023-06-22T11:58:55;101081.00;;;30.92;29.93
80335;BME280;69653;52.674;13.574;2023-06-22T12:01:21;101081.25;;;31.04;30.74
80335;BME280;69653;52.674;13.574;2023-06-22T12:03:46;101082.44;;;31.30;29.54
80335;BME280;69653;52.674;13.574;2023-06-22T12:06:13;101071.88;;;31.57;29.04
80335;BME280;69653;52.674;13.574;2023-06-22T12:08:38;101072.72;;;31.78;29.32
80335;BME280;69653;52.674;13.574;2023-06-22T12:11:03;101070.69;;;31.78;29.49
80335;BME280;69653;52.674;13.574;2023-06-22T12:13:28;101071.41;;;31.82;30.02
80335;BME280;69653;52.674;13.574;2023-06-22T12:15:54;101071.41;;;31.82;30.03
80335;BME280;69653;52.674;13.574;2023-06-22T12:18:19;101061.56;;;32.10;30.54
80335;BME280;69653;52.674;13.574;2023-06-22T12:20:47;101059.88;;;32.32;30.47
80335;BME280;69653;52.674;13.574;2023-06-22T12:23:12;101057.75;;;32.56;29.57
80335;BME280;69653;52.674;13.574;2023-06-22T12:25:37;101064.88;;;32.44;28.44
80335;BME280;69653;52.674;13.574;2023-06-22T12:28:03;101057.78;;;32.16;29.25
80335;BME280;69653;52.674;13.574;2023-06-22T12:30:29;101052.19;;;32.13;28.85
80335;BME280;69653;52.674;13.574;2023-06-22T12:32:55;101049.50;;;32.06;28.76
80335;BME280;69653;52.674;13.574;2023-06-22T12:35:20;101030.56;;;32.03;29.53
80335;BME280;69653;52.674;13.574;2023-06-22T12:37:45;101037.81;;;32.04;28.78
80335;BME280;69653;52.674;13.574;2023-06-22T12:40:11;101034.75;;;31.75;29.41
80335;BME280;69653;52.674;13.574;2023-06-22T12:42:36;101025.34;;;31.82;29.95